sensor_id;sensor_type;location;lat;lon;timestamp;pressure;altitude;pressure_sealevel;temperature;humidity
62710;BME280;48770;51.624;5.886;2023-08-30T00:00:53;100744.50;;;24.18;46.29
62710;BME280;48770;51.624;5.886;2023-08-30T00:03:18;100749.28;;;24.18;46.35
62710;BME280;48770;51.624;5.886;2023-08-30T00:05:44;100746.50;;;24.18;46.22
62710;BME280;48770;51.624;5.886;2023-08-30T00:08:09;100750.09;;;24.18;46.31
62710;BME280;48770;51.624;5.886;2023-08-30T00:10:35;100736.50;;;24.17;46.08
62710;BME280;48770;51.624;5.886;2023-08-30T00:13:00;100738.91;;;24.18;46.38
62710;BME280;48770;51.624;5.886;2023-08-30T00:15:26;100740.09;;;24.17;46.09
62710;BME280;48770;51.624;5.886;2023-08-30T00:17:51;100736.50;;;24.17;46.37
62710;BME280;48770;51.624;5.886;2023-08-30T00:20:17;100739.28;;;24.17;46.23
62710;BME280;48770;51.624;5.886;2023-08-30T00:22:43;100731.72;;;24.17;46.40
62710;BME280;48770;51.624;5.886;2023-08-30T00:25:08;100729.31;;;24.16;45.91
62710;BME280;48770;51.624;5.886;2023-08-30T00:27:34;100725.69;;;24.15;45.92
62710;BME280;48770;51.624;5.886;2023-08-30T00:29:59;100719.31;;;24.15;46.25
62710;BME280;48770;51.624;5.886;2023-08-30T00:32:24;100712.91;;;24.14;46.39
62710;BME280;48770;51.624;5.886;2023-08-30T00:34:50;100721.28;;;24.14;46.20
62710;BME280;48770;51.624;5.886;2023-08-30T00:37:19;100721.28;;;24.14;46.27
62710;BME280;48770;51.624;5.886;2023-08-30T00:39:45;100714.91;;;24.14;46.17
62710;BME280;48770;51.624;5.886;2023-08-30T00:42:10;100717.69;;;24.14;46.30
62710;BME280;48770;51.624;5.886;2023-08-30T00:44:35;100713.31;;;24.13;46.04
62710;BME280;48770;51.624;5.886;2023-08-30T00:47:01;100721.28;;;24.14;46.22
62710;BME280;48770;51.624;5.886;2023-08-30T00:49:29;100713.31;;;24.13;45.83
62710;BME280;48770;51.624;5.886;2023-08-30T00:51:54;100714.09;;;24.13;45.80
62710;BME280;48770;51.624;5.886;2023-08-30T00:54:20;100720.88;;;24.12;46.21
62710;BME280;48770;51.624;5.886;2023-08-30T00:56:46;100723.66;;;24.12;45.92
62710;BME280;48770;51.624;5.886;2023-08-30T00:59:12;100710.88;;;24.11;46.03
62710;BME280;48770;51.624;5.886;2023-08-30T01:01:37;100711.69;;;24.12;46.21
62710;BME280;48770;51.624;5.886;2023-08-30T01:04:04;100715.28;;;24.12;46.05
62710;BME280;48770;51.624;5.886;2023-08-30T01:06:29;100716.47;;;24.11;46.23
62710;BME280;48770;51.624;5.886;2023-08-30T01:08:54;100715.25;;;24.09;46.27
62710;BME280;48770;51.624;5.886;2023-08-30T01:11:34;100716.03;;;24.09;45.72
62710;BME280;48770;51.624;5.886;2023-08-30T01:14:09;100715.25;;;24.09;45.86
62710;BME280;48770;51.624;5.886;2023-08-30T01:16:37;100705.25;;;24.08;46.24
62710;BME280;48770;51.624;5.886;2023-08-30T01:21:51;100698.06;;;24.07;45.97
62710;BME280;48770;51.624;5.886;2023-08-30T01:24:30;100695.25;;;24.07;45.80
62710;BME280;48770;51.624;5.886;2023-08-30T01:29:29;100691.66;;;24.06;46.24
62710;BME280;48770;51.624;5.886;2023-08-30T01:31:56;100697.25;;;24.06;46.13
62710;BME280;48770;51.624;5.886;2023-08-30T01:34:22;100697.25;;;24.06;46.12
62710;BME280;48770;51.624;5.886;2023-08-30T01:36:48;100688.88;;;24.06;46.09
62710;BME280;48770;51.624;5.886;2023-08-30T01:39:14;100697.25;;;24.06;45.78
62710;BME280;48770;51.624;5.886;2023-08-30T01:41:40;100692.47;;;24.07;45.81
62710;BME280;48770;51.624;5.886;2023-08-30T01:44:07;100694.47;;;24.06;46.15
62710;BME280;48770;51.624;5.886;2023-08-30T01:46:33;100696.44;;;24.06;45.95
62710;BME280;48770;51.624;5.886;2023-08-30T01:49:01;100697.25;;;24.06;45.68
62710;BME280;48770;51.624;5.886;2023-08-30T01:51:27;100695.66;;;24.05;45.98
62710;BME280;48770;51.624;5.886;2023-08-30T01:53:54;100688.44;;;24.04;45.96
62710;BME280;48770;51.624;5.886;2023-08-30T01:56:20;100694.84;;;24.05;46.24
62710;BME280;48770;51.624;5.886;2023-08-30T01:58:46;100692.44;;;24.03;46.13
62710;BME280;48770;51.624;5.886;2023-08-30T02:01:11;100694.03;;;24.04;45.81
62710;BME280;48770;51.624;5.886;2023-08-30T02:03:37;100693.59;;;24.02;45.96
62710;BME280;48770;51.624;5.886;2023-08-30T02:06:07;100696.41;;;24.02;46.04
62710;BME280;48770;51.624;5.886;2023-08-30T02:09:11;100695.56;;;23.98;45.82
62710;BME280;48770;51.624;5.886;2023-08-30T02:11:37;100690.78;;;23.98;46.25
62710;BME280;48770;51.624;5.886;2023-08-30T02:14:05;100684.81;;;24.00;45.94
62710;BME280;48770;51.624;5.886;2023-08-30T02:16:36;100686.78;;;23.99;46.12
62710;BME280;48770;51.624;5.886;2023-08-30T02:19:02;100694.00;;;24.01;45.94
62710;BME280;48770;51.624;5.886;2023-08-30T02:21:28;100684.00;;;23.99;45.99
62710;BME280;48770;51.624;5.886;2023-08-30T02:23:53;100685.19;;;23.98;45.98
62710;BME280;48770;51.624;5.886;2023-08-30T02:26:22;100684.00;;;23.99;45.97
62710;BME280;48770;51.624;5.886;2023-08-30T02:28:47;100683.19;;;23.99;45.92
62710;BME280;48770;51.624;5.886;2023-08-30T02:31:13;100685.19;;;23.98;45.69
62710;BME280;48770;51.624;5.886;2023-08-30T02:33:38;100684.38;;;23.98;45.88
62710;BME280;48770;51.624;5.886;2023-08-30T02:36:04;100674.00;;;23.98;45.87
62710;BME280;48770;51.624;5.886;2023-08-30T02:38:29;100672.41;;;23.97;45.80
62710;BME280;48770;51.624;5.886;2023-08-30T02:40:55;100664.84;;;23.98;46.04
62710;BME280;48770;51.624;5.886;2023-08-30T02:43:21;100666.00;;;23.97;45.86
62710;BME280;48770;51.624;5.886;2023-08-30T02:45:47;100656.44;;;23.98;46.04
62710;BME280;48770;51.624;5.886;2023-08-30T02:48:13;100664.84;;;23.98;45.72
62710;BME280;48770;51.624;5.886;2023-08-30T02:50:38;100658.44;;;23.97;45.81
62710;BME280;48770;51.624;5.886;2023-08-30T02:53:03;100659.63;;;23.96;45.70
62710;BME280;48770;51.624;5.886;2023-08-30T02:55:30;100657.63;;;23.97;46.09
62710;BME280;48770;51.624;5.886;2023-08-30T02:57:56;100661.63;;;23.96;46.08
62710;BME280;48770;51.624;5.886;2023-08-30T03:00:21;100654.41;;;23.95;46.13
62710;BME280;48770;51.624;5.886;2023-08-30T03:02:46;100647.19;;;23.94;45.75
62710;BME280;48770;51.624;5.886;2023-08-30T03:05:11;100655.56;;;23.94;46.12
62710;BME280;48770;51.624;5.886;2023-08-30T03:07:37;100643.59;;;23.93;45.85
62710;BME280;48770;51.624;5.886;2023-08-30T03:10:02;100652.78;;;23.94;45.78
62710;BME280;48770;51.624;5.886;2023-08-30T03:12:28;100650.81;;;23.94;45.83
62710;BME280;48770;51.624;5.886;2023-08-30T03:14:54;100649.19;;;23.93;45.58
62710;BME280;48770;51.624;5.886;2023-08-30T03:17:19;100648.38;;;23.93;45.70
62710;BME280;48770;51.624;5.886;2023-08-30T03:19:44;100645.59;;;23.93;45.92
62710;BME280;48770;51.624;5.886;2023-08-30T03:22:10;100642.00;;;23.92;45.58
62710;BME280;48770;51.624;5.886;2023-08-30T03:24:35;100638.41;;;23.92;45.62
62710;BME280;48770;51.624;5.886;2023-08-30T03:27:00;100625.63;;;23.91;45.82
62710;BME280;48770;51.624;5.886;2023-08-30T03:29:25;100627.59;;;23.90;45.73
62710;BME280;48770;51.624;5.886;2023-08-30T03:31:51;100631.19;;;23.91;45.65
62710;BME280;48770;51.624;5.886;2023-08-30T03:34:16;100617.25;;;23.91;45.79
62710;BME280;48770;51.624;5.886;2023-08-30T03:36:41;100619.22;;;23.90;46.06
62710;BME280;48770;51.624;5.886;2023-08-30T03:39:09;100608.84;;;23.91;46.00
62710;BME280;48770;51.624;5.886;2023-08-30T03:41:34;100604.47;;;23.90;45.72
62710;BME280;48770;51.624;5.886;2023-08-30T03:44:00;100599.25;;;23.88;45.55
62710;BME280;48770;51.624;5.886;2023-08-30T03:46:25;100598.06;;;23.89;45.84
62710;BME280;48770;51.624;5.886;2023-08-30T03:48:50;100595.66;;;23.88;45.66
62710;BME280;48770;51.624;5.886;2023-08-30T03:51:15;100600.44;;;23.87;45.69
62710;BME280;48770;51.624;5.886;2023-08-30T03:53:41;100585.69;;;23.87;45.75
62710;BME280;48770;51.624;5.886;2023-08-30T03:56:06;100582.88;;;23.87;45.52
62710;BME280;48770;51.624;5.886;2023-08-30T03:58:32;100580.09;;;23.87;45.60
62710;BME280;48770;51.624;5.886;2023-08-30T04:00:58;100578.09;;;23.87;45.73
62710;BME280;48770;51.624;5.886;2023-08-30T04:03:23;100573.31;;;23.88;45.59
62710;BME280;48770;51.624;5.886;2023-08-30T04:05:56;100574.50;;;23.87;45.60
62710;BME280;48770;51.624;5.886;2023-08-30T04:08:22;100572.22;;;23.66;46.26
62710;BME280;48770;51.624;5.886;2023-08-30T04:10:47;100560.41;;;23.76;45.96
62710;BME280;48770;51.624;5.886;2023-08-30T04:13:14;100561.25;;;23.80;45.86
62710;BME280;48770;51.624;5.886;2023-08-30T04:15:40;100556.47;;;23.81;45.81
62710;BME280;48770;51.624;5.886;2023-08-30T04:18:06;100544.13;;;23.82;45.58
62710;BME280;48770;51.624;5.886;2023-08-30T04:20:32;100546.53;;;23.83;45.62
62710;BME280;48770;51.624;5.886;2023-08-30T04:22:57;100546.53;;;23.83;45.83
62710;BME280;48770;51.624;5.886;2023-08-30T04:25:23;100540.97;;;23.83;46.02
62710;BME280;48770;51.624;5.886;2023-08-30T04:27:49;100538.16;;;23.83;45.44
62710;BME280;48770;51.624;5.886;2023-08-30T04:30:15;100534.56;;;23.83;45.64
62710;BME280;48770;51.624;5.886;2023-08-30T04:32:41;100529.78;;;23.83;45.56
62710;BME280;48770;51.624;5.886;2023-08-30T04:35:07;100535.38;;;23.83;45.77
62710;BME280;48770;51.624;5.886;2023-08-30T04:37:32;100527.00;;;23.83;45.83
62710;BME280;48770;51.624;5.886;2023-08-30T04:39:58;100536.56;;;23.82;45.69
62710;BME280;48770;51.624;5.886;2023-08-30T04:42:23;100544.13;;;23.82;45.89
62710;BME280;48770;51.624;5.886;2023-08-30T04:44:48;100540.53;;;23.81;45.78
62710;BME280;48770;51.624;5.886;2023-08-30T04:47:14;100534.16;;;23.81;45.57
62710;BME280;48770;51.624;5.886;2023-08-30T04:49:39;100528.56;;;23.81;45.53
62710;BME280;48770;51.624;5.886;2023-08-30T04:52:05;100530.56;;;23.80;45.75
62710;BME280;48770;51.624;5.886;2023-08-30T04:54:30;100526.97;;;23.80;45.47
62710;BME280;48770;51.624;5.886;2023-08-30T04:56:55;100522.19;;;23.80;45.80
62710;BME280;48770;51.624;5.886;2023-08-30T04:59:21;100519.78;;;23.79;45.91
62710;BME280;48770;51.624;5.886;2023-08-30T05:01:46;100515.78;;;23.80;45.70
62710;BME280;48770;51.624;5.886;2023-08-30T05:04:11;100521.38;;;23.80;45.74
62710;BME280;48770;51.624;5.886;2023-08-30T05:06:37;100524.16;;;23.80;45.76
62710;BME280;48770;51.624;5.886;2023-08-30T05:09:02;100525.34;;;23.79;45.55
62710;BME280;48770;51.624;5.886;2023-08-30T05:11:28;100532.94;;;23.78;45.46
62710;BME280;48770;51.624;5.886;2023-08-30T05:13:54;100532.53;;;23.80;45.69
62710;BME280;48770;51.624;5.886;2023-08-30T05:16:20;100539.31;;;23.79;45.76
62710;BME280;48770;51.624;5.886;2023-08-30T05:18:45;100530.13;;;23.78;45.80
62710;BME280;48770;51.624;5.886;2023-08-30T05:21:13;100525.34;;;23.79;45.58
62710;BME280;48770;51.624;5.886;2023-08-30T05:23:38;100516.97;;;23.79;45.33
62710;BME280;48770;51.624;5.886;2023-08-30T05:26:07;100515.00;;;23.79;45.54
62710;BME280;48770;51.624;5.886;2023-08-30T05:28:32;100513.75;;;23.77;45.84
62710;BME280;48770;51.624;5.886;2023-08-30T05:30:57;100508.19;;;23.77;45.52
62710;BME280;48770;51.624;5.886;2023-08-30T05:33:23;100506.19;;;23.77;45.63
62710;BME280;48770;51.624;5.886;2023-08-30T05:35:48;100505.38;;;23.77;45.40
62710;BME280;48770;51.624;5.886;2023-08-30T05:38:13;100503.78;;;23.76;45.25
62710;BME280;48770;51.624;5.886;2023-08-30T05:40:38;100492.63;;;23.76;45.42
62710;BME280;48770;51.624;5.886;2023-08-30T05:43:07;100497.81;;;23.77;45.33
62710;BME280;48770;51.624;5.886;2023-08-30T05:45:33;100493.41;;;23.76;45.69
62710;BME280;48770;51.624;5.886;2023-08-30T05:47:58;100495.41;;;23.76;45.79
62710;BME280;48770;51.624;5.886;2023-08-30T05:50:23;100498.19;;;23.76;45.67
62710;BME280;48770;51.624;5.886;2023-08-30T05:52:48;100500.19;;;23.75;45.67
62710;BME280;48770;51.624;5.886;2023-08-30T05:55:14;100493.81;;;23.75;45.56
62710;BME280;48770;51.624;5.886;2023-08-30T05:57:39;100499.38;;;23.75;45.55
62710;BME280;48770;51.624;5.886;2023-08-30T06:00:05;100495.78;;;23.74;45.43
62710;BME280;48770;51.624;5.886;2023-08-30T06:02:30;100490.22;;;23.74;45.88
62710;BME280;48770;51.624;5.886;2023-08-30T06:04:55;100485.44;;;23.75;45.80
62710;BME280;48770;51.624;5.886;2023-08-30T06:07:21;100481.03;;;23.74;45.80
62710;BME280;48770;51.624;5.886;2023-08-30T06:09:46;100481.03;;;23.74;45.72
62710;BME280;48770;51.624;5.886;2023-08-30T06:12:11;100477.06;;;23.75;45.34
62710;BME280;48770;51.624;5.886;2023-08-30T06:14:37;100477.06;;;23.75;45.26
62710;BME280;48770;51.624;5.886;2023-08-30T06:17:02;100474.66;;;23.73;45.62
62710;BME280;48770;51.624;5.886;2023-08-30T06:19:27;100466.28;;;23.73;45.62
62710;BME280;48770;51.624;5.886;2023-08-30T06:21:53;100459.88;;;23.73;45.74
62710;BME280;48770;51.624;5.886;2023-08-30T06:24:18;100462.69;;;23.73;45.55
62710;BME280;48770;51.624;5.886;2023-08-30T06:26:43;100461.88;;;23.72;45.26
62710;BME280;48770;51.624;5.886;2023-08-30T06:29:09;100460.69;;;23.73;45.47
62710;BME280;48770;51.624;5.886;2023-08-30T06:31:34;100461.50;;;23.74;45.63
62710;BME280;48770;51.624;5.886;2023-08-30T06:33:59;100453.50;;;23.72;45.92
62710;BME280;48770;51.624;5.886;2023-08-30T06:36:25;100455.91;;;23.74;45.57
62710;BME280;48770;51.624;5.886;2023-08-30T06:38:50;100456.72;;;23.74;45.63
62710;BME280;48770;51.624;5.886;2023-08-30T06:41:15;100457.09;;;23.73;45.52
62710;BME280;48770;51.624;5.886;2023-08-30T06:43:41;100455.47;;;23.72;45.62
62710;BME280;48770;51.624;5.886;2023-08-30T06:46:06;100459.88;;;23.73;45.46
62710;BME280;48770;51.624;5.886;2023-08-30T06:48:31;100451.50;;;23.73;45.65
62710;BME280;48770;51.624;5.886;2023-08-30T06:50:57;100455.91;;;23.74;45.54
62710;BME280;48770;51.624;5.886;2023-08-30T06:53:23;100448.72;;;23.73;45.29
62710;BME280;48770;51.624;5.886;2023-08-30T06:56:01;100451.88;;;23.71;45.75
62710;BME280;48770;51.624;5.886;2023-08-30T06:58:27;100449.91;;;23.72;45.57
62710;BME280;48770;51.624;5.886;2023-08-30T07:00:52;100443.13;;;23.73;45.70
62710;BME280;48770;51.624;5.886;2023-08-30T07:03:18;100446.31;;;23.71;45.31
62710;BME280;48770;51.624;5.886;2023-08-30T07:05:43;100452.69;;;23.72;45.17
62710;BME280;48770;51.624;5.886;2023-08-30T07:08:09;100456.66;;;23.71;45.61
62710;BME280;48770;51.624;5.886;2023-08-30T07:10:34;100457.47;;;23.71;45.69
62710;BME280;48770;51.624;5.886;2023-08-30T07:12:59;100458.28;;;23.72;45.76
62710;BME280;48770;51.624;5.886;2023-08-30T07:15:25;100463.06;;;23.71;45.59
62710;BME280;48770;51.624;5.886;2023-08-30T07:17:50;100465.03;;;23.71;45.69
62710;BME280;48770;51.624;5.886;2023-08-30T07:20:16;100479.00;;;23.71;45.72
62710;BME280;48770;51.624;5.886;2023-08-30T07:22:42;100479.00;;;23.71;45.62
62710;BME280;48770;51.624;5.886;2023-08-30T07:25:07;100484.59;;;23.71;45.82
62710;BME280;48770;51.624;5.886;2023-08-30T07:27:35;100479.81;;;23.71;45.45
62710;BME280;48770;51.624;5.886;2023-08-30T07:30:00;100492.16;;;23.70;45.71
62710;BME280;48770;51.624;5.886;2023-08-30T07:32:26;100491.34;;;23.70;45.95
62710;BME280;48770;51.624;5.886;2023-08-30T07:34:52;100482.19;;;23.69;45.59
62710;BME280;48770;51.624;5.886;2023-08-30T07:37:18;100481.00;;;23.70;45.58
62710;BME280;48770;51.624;5.886;2023-08-30T07:39:44;100481.00;;;23.70;45.44
62710;BME280;48770;51.624;5.886;2023-08-30T07:42:09;100475.78;;;23.68;45.47
62710;BME280;48770;51.624;5.886;2023-08-30T07:44:35;100461.84;;;23.68;45.57
62710;BME280;48770;51.624;5.886;2023-08-30T07:47:00;100454.63;;;23.67;45.28
62710;BME280;48770;51.624;5.886;2023-08-30T07:49:25;100451.03;;;23.67;45.47
62710;BME280;48770;51.624;5.886;2023-08-30T07:51:51;100442.66;;;23.67;45.36
62710;BME280;48770;51.624;5.886;2023-08-30T07:54:16;100432.28;;;23.67;45.44
62710;BME280;48770;51.624;5.886;2023-08-30T07:56:41;100433.09;;;23.68;45.53
62710;BME280;48770;51.624;5.886;2023-08-30T07:59:06;100436.25;;;23.66;45.53
62710;BME280;48770;51.624;5.886;2023-08-30T08:01:32;100433.47;;;23.66;45.65
62710;BME280;48770;51.624;5.886;2023-08-30T08:03:57;100427.88;;;23.66;45.74
62710;BME280;48770;51.624;5.886;2023-08-30T08:06:22;100421.50;;;23.66;45.41
62710;BME280;48770;51.624;5.886;2023-08-30T08:08:48;100421.13;;;23.67;45.44
62710;BME280;48770;51.624;5.886;2023-08-30T08:11:13;100427.09;;;23.66;45.64
62710;BME280;48770;51.624;5.886;2023-08-30T08:13:38;100431.47;;;23.67;45.42
62710;BME280;48770;51.624;5.886;2023-08-30T08:16:04;100428.69;;;23.67;45.42
62710;BME280;48770;51.624;5.886;2023-08-30T08:18:29;100427.09;;;23.66;45.70
62710;BME280;48770;51.624;5.886;2023-08-30T08:20:54;100427.09;;;23.66;45.57
62710;BME280;48770;51.624;5.886;2023-08-30T08:23:19;100427.09;;;23.66;45.70
62710;BME280;48770;51.624;5.886;2023-08-30T08:25:45;100423.50;;;23.65;45.78
62710;BME280;48770;51.624;5.886;2023-08-30T08:28:10;100407.94;;;23.64;45.67
62710;BME280;48770;51.624;5.886;2023-08-30T08:30:36;100409.53;;;23.65;45.41
62710;BME280;48770;51.624;5.886;2023-08-30T08:33:01;100412.31;;;23.65;45.42
62710;BME280;48770;51.624;5.886;2023-08-30T08:35:26;100413.50;;;23.64;45.78
62710;BME280;48770;51.624;5.886;2023-08-30T08:37:52;100418.28;;;23.64;45.66
62710;BME280;48770;51.624;5.886;2023-08-30T08:40:17;100407.94;;;23.64;45.43
62710;BME280;48770;51.624;5.886;2023-08-30T08:42:43;100411.91;;;23.63;45.44
62710;BME280;48770;51.624;5.886;2023-08-30T08:45:09;100413.50;;;23.64;45.62
62710;BME280;48770;51.624;5.886;2023-08-30T08:47:36;100407.94;;;23.64;45.50
62710;BME280;48770;51.624;5.886;2023-08-30T08:50:01;100400.34;;;23.65;45.43
62710;BME280;48770;51.624;5.886;2023-08-30T08:52:29;100401.53;;;23.64;45.50
62710;BME280;48770;51.624;5.886;2023-08-30T08:54:54;100395.97;;;23.64;45.75
62710;BME280;48770;51.624;5.886;2023-08-30T08:57:21;100393.97;;;23.64;45.72
62710;BME280;48770;51.624;5.886;2023-08-30T08:59:46;100395.97;;;23.64;45.55
62710;BME280;48770;51.624;5.886;2023-08-30T09:02:13;100396.75;;;23.64;45.67
62710;BME280;48770;51.624;5.886;2023-08-30T09:04:39;100392.38;;;23.63;45.78
62710;BME280;48770;51.624;5.886;2023-08-30T09:07:05;100406.31;;;23.63;45.34
62710;BME280;48770;51.624;5.886;2023-08-30T09:09:31;100395.16;;;23.63;45.56
62710;BME280;48770;51.624;5.886;2023-08-30T09:11:56;100390.38;;;23.64;45.61
62710;BME280;48770;51.624;5.886;2023-08-30T09:14:21;100393.56;;;23.62;45.92
62710;BME280;48770;51.624;5.886;2023-08-30T09:16:54;100388.78;;;23.63;45.62
62710;BME280;48770;51.624;5.886;2023-08-30T09:19:20;100388.34;;;23.61;45.61
62710;BME280;48770;51.624;5.886;2023-08-30T09:24:18;100395.94;;;23.60;45.44
62710;BME280;48770;51.624;5.886;2023-08-30T09:26:55;100389.97;;;23.62;45.70
62710;BME280;48770;51.624;5.886;2023-08-30T09:29:22;100396.72;;;23.61;45.80
62710;BME280;48770;51.624;5.886;2023-08-30T09:31:51;100392.75;;;23.62;45.43
62710;BME280;48770;51.624;5.886;2023-08-30T09:34:22;100384.75;;;23.60;45.52
62710;BME280;48770;51.624;5.886;2023-08-30T09:36:47;100390.34;;;23.60;45.63
62710;BME280;48770;51.624;5.886;2023-08-30T09:39:15;100389.16;;;23.61;45.57
62710;BME280;48770;51.624;5.886;2023-08-30T09:41:48;100387.16;;;23.62;45.87
62710;BME280;48770;51.624;5.886;2023-08-30T09:44:17;100391.53;;;23.59;45.49
62710;BME280;48770;51.624;5.886;2023-08-30T09:49:10;100387.56;;;23.60;45.73
62710;BME280;48770;51.624;5.886;2023-08-30T09:51:38;100394.75;;;23.61;45.62
62710;BME280;48770;51.624;5.886;2023-08-30T09:54:10;100390.75;;;23.62;45.69
62710;BME280;48770;51.624;5.886;2023-08-30T09:56:38;100385.94;;;23.59;45.68
62710;BME280;48770;51.624;5.886;2023-08-30T09:59:04;100389.97;;;23.62;45.89
62710;BME280;48770;51.624;5.886;2023-08-30T10:01:30;100381.59;;;23.62;45.44
62710;BME280;48770;51.624;5.886;2023-08-30T10:03:56;100387.97;;;23.62;45.74
62710;BME280;48770;51.624;5.886;2023-08-30T10:06:24;100384.00;;;23.63;45.54
62710;BME280;48770;51.624;5.886;2023-08-30T10:08:51;100383.19;;;23.63;45.54
62710;BME280;48770;51.624;5.886;2023-08-30T10:11:18;100375.63;;;23.63;45.66
62710;BME280;48770;51.624;5.886;2023-08-30T10:13:44;100378.41;;;23.63;45.40
62710;BME280;48770;51.624;5.886;2023-08-30T10:16:12;100372.03;;;23.63;45.83
62710;BME280;48770;51.624;5.886;2023-08-30T10:18:42;100377.59;;;23.63;45.82
62710;BME280;48770;51.624;5.886;2023-08-30T10:21:11;100374.81;;;23.63;45.80
62710;BME280;48770;51.624;5.886;2023-08-30T10:23:38;100380.41;;;23.63;45.61
62710;BME280;48770;51.624;5.886;2023-08-30T10:26:05;100370.03;;;23.63;45.74
62710;BME280;48770;51.624;5.886;2023-08-30T10:28:32;100376.44;;;23.64;45.41
62710;BME280;48770;51.624;5.886;2023-08-30T10:31:00;100371.22;;;23.62;45.76
62710;BME280;48770;51.624;5.886;2023-08-30T10:33:25;100375.63;;;23.63;45.71
62710;BME280;48770;51.624;5.886;2023-08-30T10:35:51;100360.47;;;23.64;45.39
62710;BME280;48770;51.624;5.886;2023-08-30T10:38:29;100369.25;;;23.63;45.63
62710;BME280;48770;51.624;5.886;2023-08-30T10:40:55;100360.88;;;23.63;45.66
62710;BME280;48770;51.624;5.886;2023-08-30T10:43:31;100365.66;;;23.62;45.56
62710;BME280;48770;51.624;5.886;2023-08-30T10:46:02;100367.25;;;23.63;45.33
62710;BME280;48770;51.624;5.886;2023-08-30T10:48:36;100367.25;;;23.63;45.68
62710;BME280;48770;51.624;5.886;2023-08-30T10:51:01;100368.44;;;23.62;45.60
62710;BME280;48770;51.624;5.886;2023-08-30T10:53:29;100367.25;;;23.63;45.36
62710;BME280;48770;51.624;5.886;2023-08-30T10:56:10;100356.88;;;23.64;45.69
62710;BME280;48770;51.624;5.886;2023-08-30T10:58:41;100376.84;;;23.66;45.40
62710;BME280;48770;51.624;5.886;2023-08-30T11:01:09;100360.91;;;23.66;45.67
62710;BME280;48770;51.624;5.886;2023-08-30T11:03:35;100370.06;;;23.67;45.73
62710;BME280;48770;51.624;5.886;2023-08-30T11:06:02;100364.13;;;23.68;45.72
62710;BME280;48770;51.624;5.886;2023-08-30T11:08:28;100359.34;;;23.69;45.52
62710;BME280;48770;51.624;5.886;2023-08-30T11:11:04;100359.34;;;23.69;45.75
62710;BME280;48770;51.624;5.886;2023-08-30T11:13:30;100351.78;;;23.70;45.62
62710;BME280;48770;51.624;5.886;2023-08-30T11:16:02;100354.56;;;23.70;45.70
62710;BME280;48770;51.624;5.886;2023-08-30T11:18:36;100345.81;;;23.71;45.44
62710;BME280;48770;51.624;5.886;2023-08-30T11:21:02;100345.00;;;23.71;45.78
62710;BME280;48770;51.624;5.886;2023-08-30T11:23:28;100351.00;;;23.73;45.25
62710;BME280;48770;51.624;5.886;2023-08-30T11:25:54;100347.41;;;23.72;45.92
62710;BME280;48770;51.624;5.886;2023-08-30T11:28:25;100347.84;;;23.74;45.32
62710;BME280;48770;51.624;5.886;2023-08-30T11:30:54;100340.25;;;23.75;45.80
62710;BME280;48770;51.624;5.886;2023-08-30T11:33:23;100343.06;;;23.75;45.94
62710;BME280;48770;51.624;5.886;2023-08-30T11:35:50;100329.09;;;23.75;45.68
62710;BME280;48770;51.624;5.886;2023-08-30T11:38:17;100335.09;;;23.77;45.49
62710;BME280;48770;51.624;5.886;2023-08-30T11:40:43;100325.13;;;23.76;45.71
62710;BME280;48770;51.624;5.886;2023-08-30T11:43:09;100321.94;;;23.77;45.37
62710;BME280;48770;51.624;5.886;2023-08-30T11:45:35;100317.53;;;23.76;45.73
62710;BME280;48770;51.624;5.886;2023-08-30T11:48:00;100317.53;;;23.76;45.65
62710;BME280;48770;51.624;5.886;2023-08-30T11:50:27;100319.16;;;23.77;45.90
62710;BME280;48770;51.624;5.886;2023-08-30T11:52:53;100337.88;;;23.77;45.46
62710;BME280;48770;51.624;5.886;2023-08-30T11:55:20;100349.06;;;23.77;45.47
62710;BME280;48770;51.624;5.886;2023-08-30T11:57:48;100360.22;;;23.77;45.84
62710;BME280;48770;51.624;5.886;2023-08-30T12:00:14;100365.00;;;23.76;45.86
62710;BME280;48770;51.624;5.886;2023-08-30T12:02:40;100367.00;;;23.76;45.75
62710;BME280;48770;51.624;5.886;2023-08-30T12:05:06;100353.03;;;23.76;46.05
62710;BME280;48770;51.624;5.886;2023-08-30T12:07:36;100364.19;;;23.76;45.94
62710;BME280;48770;51.624;5.886;2023-08-30T12:10:11;100358.63;;;23.76;45.86
62710;BME280;48770;51.624;5.886;2023-08-30T12:12:37;100355.41;;;23.74;45.44
62710;BME280;48770;51.624;5.886;2023-08-30T12:15:12;100356.59;;;23.73;45.56
62710;BME280;48770;51.624;5.886;2023-08-30T12:17:39;100351.44;;;23.75;46.00
62710;BME280;48770;51.624;5.886;2023-08-30T12:20:05;100359.00;;;23.74;45.82
62710;BME280;48770;51.624;5.886;2023-08-30T12:22:40;100353.03;;;23.76;45.59
62710;BME280;48770;51.624;5.886;2023-08-30T12:25:21;100348.25;;;23.76;45.81
62710;BME280;48770;51.624;5.886;2023-08-30T12:27:48;100349.06;;;23.77;46.12
62710;BME280;48770;51.624;5.886;2023-08-30T12:30:15;100342.69;;;23.80;45.69
62710;BME280;48770;51.624;5.886;2023-08-30T12:32:42;100335.94;;;23.81;45.98
62710;BME280;48770;51.624;5.886;2023-08-30T12:35:08;100334.75;;;23.82;45.88
62710;BME280;48770;51.624;5.886;2023-08-30T12:37:34;100340.72;;;23.80;45.57
62710;BME280;48770;51.624;5.886;2023-08-30T12:39:59;100362.66;;;23.82;45.56
62710;BME280;48770;51.624;5.886;2023-08-30T12:42:25;100369.44;;;23.81;46.13
62710;BME280;48770;51.624;5.886;2023-08-30T12:44:51;100373.81;;;23.82;45.94
62710;BME280;48770;51.624;5.886;2023-08-30T12:47:16;100370.66;;;23.83;45.99
62710;BME280;48770;51.624;5.886;2023-08-30T12:49:42;100375.03;;;23.84;45.77
62710;BME280;48770;51.624;5.886;2023-08-30T12:52:07;100362.28;;;23.87;45.81
62710;BME280;48770;51.624;5.886;2023-08-30T12:54:32;100363.13;;;23.91;45.82
62710;BME280;48770;51.624;5.886;2023-08-30T12:56:58;100369.94;;;23.93;45.51